Time;durP1;ratioP1;P1;durP2;ratioP2;P2;SDS_P1;SDS_P2;PMS_P1;PMS_P2;Temp;Humidity;BMP_temperature;BMP_pressure;BME280_temperature;BME280_humidity;BME280_pressure;Samples;Min_cycle;Max_cycle;Signal;HPM_P1;HPM_P2
2022/07/27 00:02:04;;;;;;;1.77;1.20;;;;;;;;;;4995373;28;20191;-65
2022/07/27 00:04:38;;;;;;;2.23;1.20;;;;;;;;;;5006956;28;20197;-64
2022/07/27 00:07:10;;;;;;;1.47;1.20;;;;;;;;;;5020171;28;20199;-64
2022/07/27 00:09:43;;;;;;;1.70;1.10;;;;;;;;;;5008373;28;20247;-64
2022/07/27 00:12:12;;;;;;;1.90;1.17;;;;;;;;;;5000405;28;20192;-65
2022/07/27 00:14:44;;;;;;;1.47;0.90;;;;;;;;;;4999456;28;20225;-64
2022/07/27 00:17:38;;;;;;;1.77;1.10;;;;;;;;;;4990357;28;20274;-64
2022/07/27 00:20:09;;;;;;;1.80;0.93;;;;;;;;;;5007545;28;20184;-64
2022/07/27 00:22:41;;;;;;;1.87;1.07;;;;;;;;;;5008884;28;20200;-64
2022/07/27 00:25:12;;;;;;;1.77;1.30;;;;;;;;;;4993401;28;20529;-64
2022/07/27 00:27:47;;;;;;;1.70;1.00;;;;;;;;;;5011558;28;20282;-64
2022/07/27 00:30:17;;;;;;;1.47;1.10;;;;;;;;;;5010571;28;20219;-65
2022/07/27 00:32:47;;;;;;;2.07;1.20;;;;;;;;;;5009660;28;20199;-64
2022/07/27 00:35:17;;;;;;;4.20;1.03;;;;;;;;;;5011033;28;20208;-64
2022/07/27 00:37:49;;;;;;;1.50;1.00;;;;;;;;;;4995930;28;20211;-64
2022/07/27 00:40:19;;;;;;;2.13;1.10;;;;;;;;;;4991262;28;20195;-64
2022/07/27 00:42:50;;;;;;;1.30;0.90;;;;;;;;;;4991234;28;20200;-64
2022/07/27 00:45:21;;;;;;;1.27;0.97;;;;;;;;;;5009278;28;20211;-64
2022/07/27 00:47:53;;;;;;;3.43;1.40;;;;;;;;;;5004595;28;20208;-64
2022/07/27 00:50:28;;;;;;;1.50;1.07;;;;;;;;;;5010019;28;20207;-64
2022/07/27 00:52:58;;;;;;;2.30;1.00;;;;;;;;;;5004199;28;20311;-64
2022/07/27 00:55:29;;;;;;;2.90;1.10;;;;;;;;;;4992236;28;20630;-64
2022/07/27 00:58:03;;;;;;;1.20;1.00;;;;;;;;;;5010824;28;20180;-64
2022/07/27 01:00:44;;;;;;;2.13;1.10;;;;;;;;;;5005050;28;20244;-64
2022/07/27 01:03:16;;;;;;;1.60;1.10;;;;;;;;;;4997432;28;20199;-64
2022/07/27 01:05:51;;;;;;;1.90;1.03;;;;;;;;;;5009709;28;20219;-64
2022/07/27 01:08:21;;;;;;;1.57;1.00;;;;;;;;;;5012765;28;20188;-64
2022/07/27 01:10:53;;;;;;;1.60;1.10;;;;;;;;;;5000366;28;20192;-64
2022/07/27 01:13:25;;;;;;;1.53;1.03;;;;;;;;;;5014570;28;20552;-64
2022/07/27 01:15:59;;;;;;;1.57;0.93;;;;;;;;;;5000523;28;20199;-64
2022/07/27 01:18:35;;;;;;;1.63;1.00;;;;;;;;;;5019612;28;20207;-64
2022/07/27 01:21:08;;;;;;;1.17;0.87;;;;;;;;;;5010331;28;20194;-64
2022/07/27 01:23:38;;;;;;;1.37;1.20;;;;;;;;;;5002772;28;20216;-64
2022/07/27 01:26:08;;;;;;;1.80;0.97;;;;;;;;;;5012008;28;20225;-64
2022/07/27 01:28:39;;;;;;;1.70;0.90;;;;;;;;;;4997293;28;20215;-64
2022/07/27 01:31:10;;;;;;;2.03;0.90;;;;;;;;;;5009864;28;20204;-64
2022/07/27 01:33:40;;;;;;;1.07;0.93;;;;;;;;;;5012592;28;20288;-64
2022/07/27 01:36:10;;;;;;;0.93;0.73;;;;;;;;;;5010383;28;20208;-64
2022/07/27 01:38:39;;;;;;;1.23;0.90;;;;;;;;;;5013638;28;20406;-65
2022/07/27 01:41:08;;;;;;;1.00;0.90;;;;;;;;;;5007119;28;20220;-64
2022/07/27 01:43:41;;;;;;;1.20;1.00;;;;;;;;;;5011368;28;20227;-64
2022/07/27 01:46:08;;;;;;;2.87;1.00;;;;;;;;;;4986879;28;20207;-64
2022/07/27 01:48:43;;;;;;;2.07;1.00;;;;;;;;;;5005503;28;20210;-64
2022/07/27 01:51:13;;;;;;;1.50;0.80;;;;;;;;;;4993091;28;20623;-64
2022/07/27 01:53:44;;;;;;;1.63;0.80;;;;;;;;;;5009180;28;20211;-64
2022/07/27 01:56:15;;;;;;;2.93;1.07;;;;;;;;;;4992886;28;20223;-64
2022/07/27 01:58:47;;;;;;;1.23;0.90;;;;;;;;;;5008662;28;20849;-64
2022/07/27 02:01:19;;;;;;;1.80;0.87;;;;;;;;;;4973990;28;20246;-64
2022/07/27 02:03:56;;;;;;;1.67;0.90;;;;;;;;;;5011882;28;20195;-64
2022/07/27 02:06:26;;;;;;;1.50;0.87;;;;;;;;;;5007597;28;20211;-64
2022/07/27 02:08:58;;;;;;;1.53;0.93;;;;;;;;;;4998273;28;20206;-64
2022/07/27 02:14:20;;;;;;;1.77;1.00;;;;;;;;;;5017715;28;20251;-64
2022/07/27 02:16:50;;;;;;;0.90;0.80;;;;;;;;;;5008179;28;20234;-64
2022/07/27 02:19:22;;;;;;;1.03;0.80;;;;;;;;;;5009566;28;20204;-64
2022/07/27 02:21:52;;;;;;;2.40;0.90;;;;;;;;;;5014841;28;20188;-64
2022/07/27 02:24:22;;;;;;;1.03;0.93;;;;;;;;;;5024384;28;20228;-64
2022/07/27 02:26:53;;;;;;;1.87;0.80;;;;;;;;;;5020611;28;20203;-64
2022/07/27 02:29:25;;;;;;;1.30;0.90;;;;;;;;;;5004368;28;20254;-64
2022/07/27 02:31:59;;;;;;;2.20;1.17;;;;;;;;;;5008660;28;20684;-65
2022/07/27 02:34:29;;;;;;;1.37;1.13;;;;;;;;;;4999047;28;20219;-64
2022/07/27 02:37:00;;;;;;;1.83;1.10;;;;;;;;;;5018111;28;20235;-64
2022/07/27 02:39:32;;;;;;;1.33;1.03;;;;;;;;;;5010114;28;20220;-64
2022/07/27 02:42:03;;;;;;;2.53;1.00;;;;;;;;;;5009758;28;20207;-65
2022/07/27 02:44:34;;;;;;;2.13;0.97;;;;;;;;;;5017460;28;20757;-64
2022/07/27 02:47:07;;;;;;;0.77;0.77;;;;;;;;;;5018004;28;20205;-64
2022/07/27 02:49:40;;;;;;;3.70;0.90;;;;;;;;;;5010530;28;20279;-65
2022/07/27 02:52:12;;;;;;;1.30;0.90;;;;;;;;;;5008191;28;20657;-64
2022/07/27 02:54:42;;;;;;;1.33;0.90;;;;;;;;;;5001108;28;20643;-64
2022/07/27 02:57:11;;;;;;;1.50;0.90;;;;;;;;;;5011518;28;20214;-65
2022/07/27 02:59:40;;;;;;;1.23;0.93;;;;;;;;;;5011122;28;20242;-65
2022/07/27 03:02:11;;;;;;;2.43;0.90;;;;;;;;;;5005975;28;20199;-65
2022/07/27 03:04:48;;;;;;;1.47;1.00;;;;;;;;;;5000386;28;20209;-65
2022/07/27 03:07:20;;;;;;;2.03;1.00;;;;;;;;;;5009007;28;20196;-65
2022/07/27 03:09:52;;;;;;;3.07;0.90;;;;;;;;;;4995272;28;20222;-64
2022/07/27 03:12:22;;;;;;;1.13;0.77;;;;;;;;;;5007935;28;20204;-64
2022/07/27 03:14:52;;;;;;;1.73;0.93;;;;;;;;;;5002376;28;20266;-64
2022/07/27 03:17:21;;;;;;;1.63;0.90;;;;;;;;;;5003506;28;20235;-65
2022/07/27 03:19:53;;;;;;;1.23;1.10;;;;;;;;;;5009587;28;20199;-65
2022/07/27 03:22:24;;;;;;;0.77;0.77;;;;;;;;;;5009958;28;20203;-65
2022/07/27 03:25:01;;;;;;;1.70;1.07;;;;;;;;;;5002494;28;20199;-65
2022/07/27 03:27:30;;;;;;;1.57;1.10;;;;;;;;;;4992680;28;20235;-64
2022/07/27 03:30:04;;;;;;;1.03;0.83;;;;;;;;;;5003404;28;20234;-64
2022/07/27 03:32:36;;;;;;;1.00;0.80;;;;;;;;;;4990128;28;20194;-64
2022/07/27 03:35:08;;;;;;;1.20;1.07;;;;;;;;;;5005736;28;20215;-64
2022/07/27 03:37:39;;;;;;;1.70;0.97;;;;;;;;;;5007702;28;20259;-64
2022/07/27 03:40:10;;;;;;;1.20;0.90;;;;;;;;;;5007438;28;20200;-64
2022/07/27 03:42:40;;;;;;;1.00;0.90;;;;;;;;;;4983137;28;20219;-65
2022/07/27 03:45:11;;;;;;;3.83;0.80;;;;;;;;;;5007329;28;20302;-64
2022/07/27 03:47:42;;;;;;;1.20;0.93;;;;;;;;;;5015546;28;20510;-64
2022/07/27 03:50:11;;;;;;;1.43;1.00;;;;;;;;;;4970876;28;20200;-65
2022/07/27 03:52:45;;;;;;;0.87;0.80;;;;;;;;;;5007107;28;20406;-64
2022/07/27 03:55:23;;;;;;;1.20;1.00;;;;;;;;;;4977627;28;20438;-64
2022/07/27 03:57:52;;;;;;;1.63;1.00;;;;;;;;;;4992288;28;20201;-65
2022/07/27 04:00:48;;;;;;;1.10;0.97;;;;;;;;;;5002472;28;20594;-65
2022/07/27 04:03:19;;;;;;;1.27;0.97;;;;;;;;;;5007369;28;20664;-65
2022/07/27 04:05:50;;;;;;;2.97;1.17;;;;;;;;;;4999208;28;20228;-65
2022/07/27 04:08:22;;;;;;;2.30;0.90;;;;;;;;;;5014967;28;20226;-65
2022/07/27 04:10:56;;;;;;;2.23;1.10;;;;;;;;;;4990868;28;20188;-65
2022/07/27 04:13:24;;;;;;;1.83;0.90;;;;;;;;;;5007316;28;20777;-65
2022/07/27 04:15:56;;;;;;;1.53;0.87;;;;;;;;;;5007760;28;20230;-65
2022/07/27 04:18:28;;;;;;;1.37;1.10;;;;;;;;;;5010785;28;20212;-65
2022/07/27 04:21:04;;;;;;;1.67;1.00;;;;;;;;;;5001985;28;20537;-65
2022/07/27 04:23:36;;;;;;;1.37;1.00;;;;;;;;;;5006333;28;20230;-65
2022/07/27 04:26:08;;;;;;;1.67;0.80;;;;;;;;;;5009130;28;20214;-65
2022/07/27 04:29:05;;;;;;;1.50;0.83;;;;;;;;;;4999291;28;20188;-65
2022/07/27 04:31:37;;;;;;;1.17;0.97;;;;;;;;;;5010338;28;20195;-65
2022/07/27 04:34:06;;;;;;;1.87;1.00;;;;;;;;;;4998553;28;20200;-65
2022/07/27 04:36:38;;;;;;;1.30;0.90;;;;;;;;;;4998560;28;20595;-65
2022/07/27 04:39:07;;;;;;;1.17;0.80;;;;;;;;;;5014720;28;20206;-65
2022/07/27 04:41:45;;;;;;;1.47;0.90;;;;;;;;;;4990260;28;20195;-65
2022/07/27 04:44:15;;;;;;;1.07;0.90;;;;;;;;;;5018290;28;20203;-65
2022/07/27 04:46:44;;;;;;;2.10;0.90;;;;;;;;;;5010771;28;20218;-65
2022/07/27 04:49:15;;;;;;;1.10;1.00;;;;;;;;;;4978549;28;20200;-65
2022/07/27 04:51:45;;;;;;;1.67;0.90;;;;;;;;;;5028840;28;20222;-65
2022/07/27 04:54:15;;;;;;;3.37;1.10;;;;;;;;;;4982027;28;20578;-65
2022/07/27 04:56:48;;;;;;;1.17;0.93;;;;;;;;;;5006506;28;20271;-65
2022/07/27 04:59:17;;;;;;;1.33;0.93;;;;;;;;;;5005679;28;20191;-65
2022/07/27 05:01:48;;;;;;;2.33;0.70;;;;;;;;;;5005684;28;20195;-65
2022/07/27 05:04:17;;;;;;;2.17;1.00;;;;;;;;;;5014433;28;20196;-65
2022/07/27 05:06:58;;;;;;;1.50;0.80;;;;;;;;;;5013011;28;20234;-65
2022/07/27 05:09:30;;;;;;;1.63;1.00;;;;;;;;;;5007602;28;20200;-65
2022/07/27 05:12:03;;;;;;;1.70;0.93;;;;;;;;;;5007790;28;20214;-65
2022/07/27 05:14:35;;;;;;;0.83;0.67;;;;;;;;;;5013962;28;20214;-65
2022/07/27 05:17:05;;;;;;;1.47;0.90;;;;;;;;;;4996281;28;20252;-65
2022/07/27 05:19:40;;;;;;;1.73;1.03;;;;;;;;;;5003907;28;20287;-65
2022/07/27 05:22:30;;;;;;;1.80;1.00;;;;;;;;;;5022535;28;20665;-65
2022/07/27 05:25:08;;;;;;;1.17;0.90;;;;;;;;;;4988297;28;20549;-65
2022/07/27 05:27:40;;;;;;;1.30;0.87;;;;;;;;;;5026435;28;20203;-65
2022/07/27 05:30:24;;;;;;;2.97;0.87;;;;;;;;;;5001372;28;20202;-65
2022/07/27 05:32:56;;;;;;;1.53;0.93;;;;;;;;;;5015428;28;20516;-65
2022/07/27 05:35:27;;;;;;;1.97;1.00;;;;;;;;;;5017272;28;20227;-65
2022/07/27 05:37:57;;;;;;;2.27;1.33;;;;;;;;;;5027951;28;20629;-65
2022/07/27 05:40:31;;;;;;;1.30;0.87;;;;;;;;;;5008490;28;20633;-65
2022/07/27 05:43:06;;;;;;;1.30;0.90;;;;;;;;;;5015656;28;20199;-65
2022/07/27 05:45:38;;;;;;;2.57;1.00;;;;;;;;;;5024361;28;20210;-65
2022/07/27 05:48:07;;;;;;;1.57;0.97;;;;;;;;;;5015210;28;20215;-65
2022/07/27 05:50:41;;;;;;;2.07;1.03;;;;;;;;;;5005867;28;20200;-65
2022/07/27 05:53:13;;;;;;;2.93;0.90;;;;;;;;;;5007026;28;20211;-66
2022/07/27 05:55:46;;;;;;;1.80;1.10;;;;;;;;;;5007972;28;20298;-66
2022/07/27 05:58:31;;;;;;;1.10;0.90;;;;;;;;;;5007489;28;20203;-65
2022/07/27 06:01:01;;;;;;;1.57;1.10;;;;;;;;;;5018567;28;20560;-65
2022/07/27 06:03:31;;;;;;;3.23;1.00;;;;;;;;;;5021225;28;20285;-65
2022/07/27 06:08:48;;;;;;;1.77;0.90;;;;;;;;;;5022732;28;20203;-65
2022/07/27 06:11:24;;;;;;;2.80;1.33;;;;;;;;;;5023454;28;20215;-65
2022/07/27 06:13:54;;;;;;;3.20;1.17;;;;;;;;;;4997110;28;20271;-65
2022/07/27 06:16:46;;;;;;;1.40;1.10;;;;;;;;;;5000109;28;20235;-66
2022/07/27 06:19:19;;;;;;;6.07;1.10;;;;;;;;;;5013195;28;20555;-65
2022/07/27 06:21:48;;;;;;;1.30;0.83;;;;;;;;;;4997852;28;20219;-65
2022/07/27 06:24:24;;;;;;;1.67;1.10;;;;;;;;;;5015294;28;20223;-65
2022/07/27 06:26:55;;;;;;;1.57;1.20;;;;;;;;;;5017652;28;20226;-65
2022/07/27 06:29:23;;;;;;;2.33;1.17;;;;;;;;;;5018178;28;20219;-65
2022/07/27 06:32:19;;;;;;;2.30;1.10;;;;;;;;;;5013467;28;20227;-65
2022/07/27 06:34:52;;;;;;;3.13;0.90;;;;;;;;;;5010623;28;20731;-65
2022/07/27 06:37:26;;;;;;;1.03;0.80;;;;;;;;;;5017953;28;20235;-65
2022/07/27 06:40:07;;;;;;;1.10;0.80;;;;;;;;;;5011787;28;20190;-65
2022/07/27 06:42:39;;;;;;;1.83;0.90;;;;;;;;;;5002820;28;20238;-66
2022/07/27 06:45:10;;;;;;;1.47;0.90;;;;;;;;;;5014478;28;20620;-65
2022/07/27 06:47:47;;;;;;;2.90;0.80;;;;;;;;;;4997196;28;20196;-65
2022/07/27 06:50:25;;;;;;;1.10;0.80;;;;;;;;;;5007650;28;20697;-65
2022/07/27 06:52:59;;;;;;;1.20;0.70;;;;;;;;;;5014488;28;20213;-66
2022/07/27 06:55:30;;;;;;;4.97;1.63;;;;;;;;;;5015137;28;20248;-67
2022/07/27 06:58:11;;;;;;;25.87;6.90;;;;;;;;;;5008568;28;20731;-66
2022/07/27 07:00:46;;;;;;;26.77;7.87;;;;;;;;;;5029714;28;20254;-66
2022/07/27 07:03:19;;;;;;;35.63;11.20;;;;;;;;;;5006033;28;20191;-65
2022/07/27 07:05:51;;;;;;;40.67;13.17;;;;;;;;;;4994235;28;20561;-67
2022/07/27 07:08:23;;;;;;;36.97;13.43;;;;;;;;;;5010496;28;20203;-66
2022/07/27 07:10:54;;;;;;;49.70;15.90;;;;;;;;;;5014981;28;20767;-67
2022/07/27 07:13:25;;;;;;;48.07;14.77;;;;;;;;;;5005981;28;20741;-67
2022/07/27 07:15:56;;;;;;;42.67;14.77;;;;;;;;;;5016825;28;20679;-66
2022/07/27 07:18:29;;;;;;;36.73;13.03;;;;;;;;;;4994183;28;20317;-66
2022/07/27 07:21:03;;;;;;;34.43;11.73;;;;;;;;;;5006712;28;20211;-68
2022/07/27 07:23:36;;;;;;;31.03;10.37;;;;;;;;;;5008346;28;20758;-67
2022/07/27 07:26:08;;;;;;;27.20;9.90;;;;;;;;;;5006542;28;20205;-67
2022/07/27 07:28:44;;;;;;;20.47;7.53;;;;;;;;;;5011145;28;20207;-67
2022/07/27 07:31:15;;;;;;;16.90;7.03;;;;;;;;;;5007549;28;20422;-66
2022/07/27 07:33:48;;;;;;;17.37;5.63;;;;;;;;;;4994458;28;20188;-66
2022/07/27 07:36:20;;;;;;;13.10;5.27;;;;;;;;;;5003655;28;20203;-66
2022/07/27 07:38:56;;;;;;;10.77;4.80;;;;;;;;;;4990656;28;20699;-69
2022/07/27 07:41:29;;;;;;;10.40;4.43;;;;;;;;;;5011908;28;20203;-66
2022/07/27 07:43:58;;;;;;;8.40;3.37;;;;;;;;;;4993924;28;20648;-66
2022/07/27 07:46:28;;;;;;;11.17;4.33;;;;;;;;;;5006888;28;20210;-66
2022/07/27 07:49:02;;;;;;;9.77;3.90;;;;;;;;;;5010032;28;20252;-66
2022/07/27 07:51:33;;;;;;;10.27;4.10;;;;;;;;;;4989859;28;20254;-66
2022/07/27 07:54:03;;;;;;;8.87;3.20;;;;;;;;;;5006878;28;20664;-66
2022/07/27 07:56:33;;;;;;;7.87;3.83;;;;;;;;;;4999186;28;20196;-66
2022/07/27 07:59:03;;;;;;;10.13;4.07;;;;;;;;;;5006511;28;20266;-66
2022/07/27 08:01:35;;;;;;;13.97;4.43;;;;;;;;;;5006133;28;20279;-65
2022/07/27 08:04:15;;;;;;;9.70;3.87;;;;;;;;;;5007196;28;20203;-65
2022/07/27 08:06:44;;;;;;;7.90;3.53;;;;;;;;;;5010638;28;20214;-66
2022/07/27 08:09:16;;;;;;;8.43;3.60;;;;;;;;;;5029255;28;20194;-65
2022/07/27 08:11:48;;;;;;;11.00;3.80;;;;;;;;;;5016818;28;20202;-65
2022/07/27 08:14:22;;;;;;;9.63;3.60;;;;;;;;;;5000258;28;20761;-66
2022/07/27 08:16:52;;;;;;;5.10;2.80;;;;;;;;;;4994060;28;20238;-66
2022/07/27 08:19:24;;;;;;;8.63;3.53;;;;;;;;;;5019992;28;20761;-65
2022/07/27 08:21:53;;;;;;;7.27;3.90;;;;;;;;;;5028638;28;20227;-65
2022/07/27 08:24:24;;;;;;;7.30;2.93;;;;;;;;;;5028365;28;20222;-65
2022/07/27 08:26:59;;;;;;;5.77;2.90;;;;;;;;;;5015748;28;20196;-65
2022/07/27 08:29:31;;;;;;;6.63;3.37;;;;;;;;;;5015839;28;20199;-65
2022/07/27 08:32:05;;;;;;;6.60;3.20;;;;;;;;;;5019098;28;20201;-65
2022/07/27 08:34:36;;;;;;;6.50;3.10;;;;;;;;;;5011068;28;20192;-72
2022/07/27 08:37:06;;;;;;;5.27;2.67;;;;;;;;;;4991517;28;20211;-65
2022/07/27 08:39:44;;;;;;;4.60;2.53;;;;;;;;;;5007459;28;20235;-65
2022/07/27 08:42:44;;;;;;;4.93;2.50;;;;;;;;;;4993488;28;20208;-65
2022/07/27 08:45:19;;;;;;;6.90;2.67;;;;;;;;;;4995165;28;20203;-65
2022/07/27 08:47:50;;;;;;;4.77;2.10;;;;;;;;;;4979199;28;20211;-65
2022/07/27 08:50:28;;;;;;;12.90;2.40;;;;;;;;;;4996111;28;20191;-65
2022/07/27 08:53:26;;;;;;;5.47;2.90;;;;;;;;;;4985115;28;20211;-65
2022/07/27 08:56:21;;;;;;;4.13;2.07;;;;;;;;;;5009402;28;20207;-65
2022/07/27 08:58:55;;;;;;;5.53;2.13;;;;;;;;;;4993642;28;20233;-65
2022/07/27 09:01:27;;;;;;;3.70;1.90;;;;;;;;;;5007471;28;20576;-65
2022/07/27 09:03:58;;;;;;;3.80;2.23;;;;;;;;;;5009548;28;20199;-65
2022/07/27 09:06:41;;;;;;;3.73;1.83;;;;;;;;;;4974077;28;20727;-65
2022/07/27 09:09:22;;;;;;;2.73;1.70;;;;;;;;;;5013655;28;20220;-65
2022/07/27 09:12:15;;;;;;;5.20;2.23;;;;;;;;;;4975594;28;20286;-64
2022/07/27 09:14:47;;;;;;;11.77;5.10;;;;;;;;;;5011334;28;20204;-65
2022/07/27 09:17:27;;;;;;;9.03;4.30;;;;;;;;;;5006607;28;20227;-65
2022/07/27 09:20:20;;;;;;;7.50;3.40;;;;;;;;;;5016780;28;20199;-65
2022/07/27 09:22:54;;;;;;;6.13;3.00;;;;;;;;;;4972430;28;20199;-65
2022/07/27 09:25:32;;;;;;;8.50;3.53;;;;;;;;;;5008279;28;20219;-65
2022/07/27 09:28:34;;;;;;;7.87;2.60;;;;;;;;;;5015370;28;20617;-65
2022/07/27 09:31:07;;;;;;;6.57;2.90;;;;;;;;;;5010240;28;20191;-65
2022/07/27 09:33:50;;;;;;;8.33;2.67;;;;;;;;;;5010542;28;20199;-65
2022/07/27 09:36:23;;;;;;;5.77;2.30;;;;;;;;;;5006025;28;20196;-65
2022/07/27 09:39:06;;;;;;;4.83;2.20;;;;;;;;;;4968767;28;20231;-66
2022/07/27 09:41:46;;;;;;;5.10;2.53;;;;;;;;;;5006362;28;20203;-65
2022/07/27 09:44:17;;;;;;;4.53;2.20;;;;;;;;;;4990745;28;20195;-66
2022/07/27 09:47:28;;;;;;;5.57;2.30;;;;;;;;;;4997948;28;20198;-66
2022/07/27 09:50:16;;;;;;;3.10;1.70;;;;;;;;;;5010639;28;20199;-65
2022/07/27 09:52:49;;;;;;;5.07;1.87;;;;;;;;;;4985167;28;20202;-65
2022/07/27 09:55:20;;;;;;;3.57;1.60;;;;;;;;;;5003144;28;20199;-66
2022/07/27 09:58:08;;;;;;;3.10;1.80;;;;;;;;;;5019208;28;20218;-66
2022/07/27 10:00:55;;;;;;;3.47;1.63;;;;;;;;;;5003832;28;20559;-65
2022/07/27 10:03:25;;;;;;;2.93;1.57;;;;;;;;;;5008345;28;20198;-65
2022/07/27 10:05:57;;;;;;;2.60;1.73;;;;;;;;;;5002858;28;20540;-65
2022/07/27 10:08:28;;;;;;;2.97;1.60;;;;;;;;;;5008330;28;20211;-65
2022/07/27 10:11:02;;;;;;;3.07;1.50;;;;;;;;;;5007778;28;20191;-65
2022/07/27 10:13:36;;;;;;;2.73;1.30;;;;;;;;;;5007635;28;20195;-65
2022/07/27 10:16:19;;;;;;;2.90;1.20;;;;;;;;;;5000640;28;20206;-65
2022/07/27 10:18:52;;;;;;;2.40;1.50;;;;;;;;;;5001775;28;20286;-65
2022/07/27 10:21:24;;;;;;;2.30;1.30;;;;;;;;;;5011219;28;20225;-65
2022/07/27 10:23:59;;;;;;;2.33;1.37;;;;;;;;;;5011910;28;20192;-65
2022/07/27 10:26:35;;;;;;;3.27;1.30;;;;;;;;;;4999203;28;20580;-65
2022/07/27 10:29:17;;;;;;;2.67;1.40;;;;;;;;;;4993130;28;20214;-65
2022/07/27 10:31:59;;;;;;;2.83;1.30;;;;;;;;;;4999359;28;20204;-65
2022/07/27 10:34:39;;;;;;;3.13;1.30;;;;;;;;;;4995856;28;20230;-65
2022/07/27 10:37:12;;;;;;;2.17;1.17;;;;;;;;;;5014670;28;20371;-65
2022/07/27 10:39:46;;;;;;;1.77;1.13;;;;;;;;;;5010140;28;20196;-65
2022/07/27 10:42:28;;;;;;;3.00;1.50;;;;;;;;;;4977986;28;20215;-65
2022/07/27 10:45:17;;;;;;;2.13;1.30;;;;;;;;;;4988874;28;20278;-65
2022/07/27 10:47:50;;;;;;;1.47;1.20;;;;;;;;;;5007916;28;20203;-65
2022/07/27 10:50:28;;;;;;;2.20;1.23;;;;;;;;;;5006576;28;20207;-65
2022/07/27 10:53:02;;;;;;;2.53;1.40;;;;;;;;;;5001721;28;20226;-64
2022/07/27 10:55:37;;;;;;;2.43;1.43;;;;;;;;;;5008606;28;20190;-65
2022/07/27 10:58:18;;;;;;;7.40;1.40;;;;;;;;;;5016394;28;20207;-65
2022/07/27 11:00:52;;;;;;;7.07;2.10;;;;;;;;;;5005974;28;20265;-66
2022/07/27 11:03:27;;;;;;;6.20;1.50;;;;;;;;;;5008966;28;20221;-68
2022/07/27 11:06:13;;;;;;;5.33;1.43;;;;;;;;;;5010902;28;20218;-66
2022/07/27 11:09:01;;;;;;;3.13;1.30;;;;;;;;;;5013866;28;20200;-67
2022/07/27 11:12:06;;;;;;;3.60;1.30;;;;;;;;;;4994645;28;20680;-67
2022/07/27 11:14:45;;;;;;;3.80;1.20;;;;;;;;;;5009723;28;20236;-67
2022/07/27 11:17:25;;;;;;;3.17;1.20;;;;;;;;;;4991969;28;20218;-67
2022/07/27 11:20:25;;;;;;;4.07;1.23;;;;;;;;;;5012918;28;20281;-67
2022/07/27 11:23:20;;;;;;;1.83;1.10;;;;;;;;;;4995362;28;20203;-66
2022/07/27 11:26:11;;;;;;;2.10;1.10;;;;;;;;;;4985676;28;20211;-67
2022/07/27 11:28:41;;;;;;;2.90;1.10;;;;;;;;;;4974304;28;20212;-67
2022/07/27 11:31:13;;;;;;;2.20;1.10;;;;;;;;;;4994822;28;20262;-66
2022/07/27 11:34:06;;;;;;;1.83;1.20;;;;;;;;;;5012845;28;20199;-66
2022/07/27 11:36:51;;;;;;;2.53;1.00;;;;;;;;;;5004965;28;20579;-67
2022/07/27 11:39:24;;;;;;;1.70;1.03;;;;;;;;;;5013665;28;20300;-67
2022/07/27 11:42:15;;;;;;;2.50;1.10;;;;;;;;;;4997545;28;20302;-66
2022/07/27 11:44:52;;;;;;;1.30;0.90;;;;;;;;;;4996450;28;20205;-66
2022/07/27 11:47:25;;;;;;;1.63;1.00;;;;;;;;;;5000005;28;20191;-68
2022/07/27 11:50:06;;;;;;;1.87;1.00;;;;;;;;;;4994076;28;20823;-67
2022/07/27 11:52:39;;;;;;;1.73;0.80;;;;;;;;;;5010344;28;20640;-67
2022/07/27 11:55:23;;;;;;;1.97;0.70;;;;;;;;;;5003872;28;20282;-66
2022/07/27 11:57:54;;;;;;;1.23;0.80;;;;;;;;;;5010548;28;20315;-66
2022/07/27 12:00:38;;;;;;;1.40;0.70;;;;;;;;;;4989133;28;20766;-71
2022/07/27 12:03:08;;;;;;;1.20;0.70;;;;;;;;;;5004012;28;20576;-69
2022/07/27 12:05:43;;;;;;;1.43;0.70;;;;;;;;;;5008531;28;20571;-68
2022/07/27 12:08:14;;;;;;;1.23;0.80;;;;;;;;;;5007251;28;20207;-68
2022/07/27 12:11:05;;;;;;;2.20;0.80;;;;;;;;;;5010209;28;20200;-68
2022/07/27 12:13:38;;;;;;;1.63;0.90;;;;;;;;;;5014671;28;20207;-69
2022/07/27 12:16:06;;;;;;;1.67;0.80;;;;;;;;;;5007320;28;20203;-69
2022/07/27 12:18:45;;;;;;;1.27;0.70;;;;;;;;;;5004821;28;20624;-69
2022/07/27 12:21:17;;;;;;;0.73;0.67;;;;;;;;;;5009431;28;20196;-68
2022/07/27 12:23:53;;;;;;;0.80;0.70;;;;;;;;;;4993334;28;20286;-68
2022/07/27 12:26:28;;;;;;;1.33;0.90;;;;;;;;;;4996616;28;20277;-68
2022/07/27 12:29:11;;;;;;;1.77;0.90;;;;;;;;;;5006277;28;20196;-67
2022/07/27 12:32:00;;;;;;;1.23;0.80;;;;;;;;;;4982219;28;20222;-66
2022/07/27 12:34:44;;;;;;;1.23;0.70;;;;;;;;;;4987814;28;20216;-71
2022/07/27 12:37:16;;;;;;;4.43;1.00;;;;;;;;;;5008723;28;20253;-68
2022/07/27 12:39:51;;;;;;;1.90;1.00;;;;;;;;;;4965974;28;20720;-66
2022/07/27 12:42:31;;;;;;;1.30;0.90;;;;;;;;;;5001893;28;20413;-68
2022/07/27 12:45:11;;;;;;;3.33;1.10;;;;;;;;;;4999564;28;20973;-68
2022/07/27 12:47:47;;;;;;;2.27;1.20;;;;;;;;;;5002445;28;20621;-68
2022/07/27 12:50:27;;;;;;;3.73;1.07;;;;;;;;;;4995631;28;20278;-66
2022/07/27 12:52:56;;;;;;;4.50;1.10;;;;;;;;;;5010127;28;20207;-71
2022/07/27 12:55:28;;;;;;;6.50;1.20;;;;;;;;;;5010788;28;20195;-69
2022/07/27 12:58:01;;;;;;;4.07;1.00;;;;;;;;;;5007585;28;20266;-68
2022/07/27 13:00:38;;;;;;;2.97;1.03;;;;;;;;;;5009718;28;20235;-69
2022/07/27 13:03:39;;;;;;;3.97;1.40;;;;;;;;;;5009965;28;20242;-64
2022/07/27 13:06:11;;;;;;;2.77;1.23;;;;;;;;;;5016575;28;20210;-63
2022/07/27 13:08:45;;;;;;;2.23;1.07;;;;;;;;;;5015232;28;20652;-64
2022/07/27 13:11:19;;;;;;;6.13;1.40;;;;;;;;;;4993068;28;20245;-65
2022/07/27 13:13:53;;;;;;;3.27;1.10;;;;;;;;;;5016297;28;20421;-65
2022/07/27 13:16:23;;;;;;;5.10;1.63;;;;;;;;;;5010872;28;20624;-65
2022/07/27 13:18:51;;;;;;;2.73;1.40;;;;;;;;;;4997626;28;20601;-65
2022/07/27 13:21:22;;;;;;;2.63;1.07;;;;;;;;;;4993992;28;20187;-66
2022/07/27 13:23:55;;;;;;;2.90;0.97;;;;;;;;;;4992340;28;20207;-66
2022/07/27 13:26:26;;;;;;;1.33;1.03;;;;;;;;;;5004386;28;20188;-64
2022/07/27 13:28:58;;;;;;;1.00;0.80;;;;;;;;;;5004041;28;20286;-64
2022/07/27 13:31:27;;;;;;;1.30;1.17;;;;;;;;;;5009120;28;20199;-64
2022/07/27 13:33:56;;;;;;;2.73;1.60;;;;;;;;;;5000275;28;20214;-64
2022/07/27 13:36:24;;;;;;;1.83;1.27;;;;;;;;;;4976859;28;20657;-65
2022/07/27 13:38:57;;;;;;;2.17;1.13;;;;;;;;;;5002688;28;20238;-65
2022/07/27 13:41:28;;;;;;;2.40;1.20;;;;;;;;;;5013041;28;20215;-64
2022/07/27 13:43:59;;;;;;;2.00;1.03;;;;;;;;;;5008970;28;20202;-65
2022/07/27 13:46:30;;;;;;;2.23;1.13;;;;;;;;;;5007172;28;20211;-66
2022/07/27 13:48:59;;;;;;;3.67;1.00;;;;;;;;;;4989497;28;20206;-66
2022/07/27 13:51:34;;;;;;;2.43;1.00;;;;;;;;;;5002597;28;20211;-64
2022/07/27 13:54:06;;;;;;;2.90;1.33;;;;;;;;;;4989109;28;20197;-64
2022/07/27 13:56:38;;;;;;;2.60;1.00;;;;;;;;;;4990548;28;20274;-64
2022/07/27 13:59:07;;;;;;;3.37;1.10;;;;;;;;;;5010464;28;20215;-65
2022/07/27 14:01:36;;;;;;;2.37;0.83;;;;;;;;;;5007692;28;20293;-66
2022/07/27 14:04:09;;;;;;;1.70;1.07;;;;;;;;;;5001274;28;20263;-66
2022/07/27 14:06:52;;;;;;;2.27;1.07;;;;;;;;;;5004970;28;20294;-66
2022/07/27 14:10:30;;;;;;;1.57;1.13;;;;;;;;;;4985804;28;20246;-66
2022/07/27 14:12:25;;;;;;;2.20;1.10;;;;;;;;;;5009244;28;20645;-66
2022/07/27 14:15:00;;;;;;;2.03;1.10;;;;;;;;;;4997162;28;20215;-65
2022/07/27 14:17:32;;;;;;;2.60;1.20;;;;;;;;;;5006521;28;20202;-65
2022/07/27 14:20:17;;;;;;;2.77;1.10;;;;;;;;;;5004932;28;20229;-64
2022/07/27 14:22:51;;;;;;;2.13;1.10;;;;;;;;;;5009133;28;20191;-64
2022/07/27 14:25:30;;;;;;;2.10;0.80;;;;;;;;;;5012590;28;20661;-64
2022/07/27 14:28:02;;;;;;;2.40;1.13;;;;;;;;;;4979994;28;20211;-64
2022/07/27 14:30:34;;;;;;;1.73;1.13;;;;;;;;;;5001340;28;20214;-66
2022/07/27 14:33:10;;;;;;;1.57;1.20;;;;;;;;;;5006494;28;20210;-66
2022/07/27 14:35:42;;;;;;;5.70;1.63;;;;;;;;;;5011590;28;20199;-66
2022/07/27 14:38:11;;;;;;;1.67;1.20;;;;;;;;;;5003820;28;20200;-65
2022/07/27 14:40:45;;;;;;;3.10;1.10;;;;;;;;;;4999355;28;20538;-66
2022/07/27 14:43:18;;;;;;;3.03;1.00;;;;;;;;;;5026253;28;20217;-66
2022/07/27 14:45:53;;;;;;;1.73;1.20;;;;;;;;;;5019898;28;20211;-66
2022/07/27 14:48:25;;;;;;;3.30;1.20;;;;;;;;;;5010618;28;20286;-66
2022/07/27 14:51:20;;;;;;;2.77;1.07;;;;;;;;;;5005540;28;20291;-64
2022/07/27 14:53:48;;;;;;;2.77;1.17;;;;;;;;;;5005608;28;20203;-63
2022/07/27 14:56:17;;;;;;;1.93;1.23;;;;;;;;;;4984780;28;20196;-66
2022/07/27 14:58:49;;;;;;;1.57;1.10;;;;;;;;;;5003209;28;20234;-66
2022/07/27 15:01:24;;;;;;;2.20;1.10;;;;;;;;;;5010016;28;20282;-66
2022/07/27 15:03:55;;;;;;;3.30;0.83;;;;;;;;;;4997484;28;20670;-66
2022/07/27 15:06:26;;;;;;;1.90;0.97;;;;;;;;;;4971550;28;20270;-65
2022/07/27 15:09:07;;;;;;;3.27;1.17;;;;;;;;;;4986879;28;20196;-66
2022/07/27 15:11:40;;;;;;;1.70;1.10;;;;;;;;;;5001521;28;20214;-64
2022/07/27 15:14:12;;;;;;;2.40;1.10;;;;;;;;;;5006117;28;20274;-64
2022/07/27 15:16:42;;;;;;;3.53;1.00;;;;;;;;;;5004872;28;20486;-66
2022/07/27 15:19:11;;;;;;;1.70;1.10;;;;;;;;;;5012141;28;20617;-66
2022/07/27 15:21:43;;;;;;;1.67;1.00;;;;;;;;;;5026524;28;20229;-66
2022/07/27 15:24:14;;;;;;;2.50;1.10;;;;;;;;;;5004404;28;20220;-66
2022/07/27 15:26:44;;;;;;;3.03;1.10;;;;;;;;;;4990938;28;20649;-65
2022/07/27 15:29:14;;;;;;;6.97;1.00;;;;;;;;;;5008571;28;20195;-66
2022/07/27 15:31:44;;;;;;;2.70;0.70;;;;;;;;;;5008226;28;20207;-64